[Jeden Montag | 1800z - 2100z ] EDDL | Duesseldorf Monday

Zu Eventkalender hinzugefügt: 588 Daten

Kai Schuele

1482477
RG Düsseldorf - Event


Heute bieten wir euch zum Start in die Woche wieder besten ATC Service an!


Ab 18:00z (19:00lcl) öffnet für euch wieder unser Düsseldorf International für euch von Delivery bis CTR.
Heute sagen die Meteorologen nicht so schönes Wetter Voraus und wir haben mit einer Tiefen Wolkendecke und begrenzten Sichten vermutlich zu Kämpfen, aber das soll uns nicht im Wege stehen. Ganz im Gegenteil, nutzt die Gelegenheit euren an oder Abflug mal etwas Spannender zu gestalten und fliegt IFR oder VFR euren Flug von oder nach Düsseldorf.
Wie jede Woche empfehlen wir als Shuttletipps die Onlinetage in Budapest (LHBP), und Nürnberg EDDN.
Also seit dabei unsere Lotsinnen und Lotsen freuen sich auf euren Besuch in der Landeshauptstadt Düsseldorf.

Wir hören uns auf Frequenz!

Nützliche Infos:

Scenery:
TAF:
  • EDDL 070500Z 0706/0812 27007KT 6000 OVC006 TEMPO 0706/0712 2500 -RADZ BR BKN004 BECMG 0709/0712 21010KT BKN010 TEMPO 0712/0716 4000 BR BKN009 BECMG 0715/0718 15006KT SCT012 BKN020 BECMG 0800/0803 09004KT
 

Kai Schuele

1482477
RG Düsseldorf - Event



Heute ist wieder Düsseldorf Monday!

Ab 18:00z (19:00lcl) öffnen wir heute wieder den Flughafen unserer Landeshauptstadt mit gewohnt gutem Service von Delivery bis Center.
Nach dem Ansturm der letzten Wochen haben wir uns Heute gerüstet für euch und sind zum Wochenstart bereit für einen Over-loaded-Airport.
Natürlich bieten wir euch unser Monthly Shuttle zum Onlinetag in Budapest (LHBP) an aber auch viele andere Flughäfen öffnen heute Abend ihr Türen für euch.

Also seit mit eurer Maschine ab 19:00lcl IFR oder VFR dabei und bringt leben an NRW's Größten Flughafen!

Wir freuen uns auf euch bis Später.

Nützliche Infos:

Scenery:
TAF:
  • EDDL 141100Z 1412/1518 15012KT 9999 BKN035 TEMPO 1422/1513 4000 RA PROB30 TEMPO 1505/1515 BKN009 BECMG 1512/1515 18007KT
 
Zuletzt bearbeitet:
Man man man, da war ja richtig was los heute Abend. Habe ich nicht mit gerechnet mit dem Verkehr, allerdings konnte ich so schön eine Dreiviertelstunde an der Piste stehen und auf meinen Abflug warten und schauen was alles so ankommt und wegfliegt!

Bin beeindruckt gewesen, habe zwischenzeitlich 45 Flieger nur am Boden gezählt, das ist schon ne Leistung! Bis nächsten Montag!
 

Kai Schuele

1482477
RG Düsseldorf - Event



Heute bieten wir euch zum Start in die Woche wieder besten ATC Service an!

Ab 18:00z (19:00lcl) öffnet für euch wieder unser Düsseldorf International für euch von Delivery bis CTR.
Heute sagen die Meteorologen nicht so schönes Wetter Voraus und wir haben mit einer Tiefen Wolkendecke und begrenzten Sichten vermutlich zu Kämpfen, aber das soll uns nicht im Wege stehen. Ganz im Gegenteil, nutzt die Gelegenheit euren an oder Abflug mal etwas Spannender zu gestalten und fliegt IFR oder VFR euren Flug von oder nach Düsseldorf.
Wie jede Woche empfehlen wir als Shuttletipps die Onlinetage in Budapest (LHBP), und Nürnberg EDDN.
Also seit dabei unsere Lotsinnen und Lotsen freuen sich auf euren Besuch in der Landeshauptstadt Düsseldorf.

Besonders zu erwähnen ist die neue Justim Scenerie für Düsseldorf die unseren MS2020 Fliegern jetzt noch mehr Airport Feeling gibt.

Wir hören uns auf Frequenz!

Nützliche Infos:

Scenery:
TAF:
  • EDDL 211700Z 2118/2224 16014KT 9999 BKN020 TEMPO 2118/2124 17015G25KT 4000 RA BKN014 BECMG 2200/2203 22015G25KT BKN010 TEMPO 2200/2210 4000 -RA BKN008 PROB30 TEMPO 2200/2205 RA BECMG 2210/2213 22010KT BKN015 TEMPO 2216/2224 RA BKN008
 
Zuletzt bearbeitet:

Kai Schuele

1482477
RG Düsseldorf - Event


Jahresabschluss am Flughafen Düsseldorf

Heute öffnen wir zum letzten mal dieses Jahr ab 18:00z (19:00lcl) den Flughafen der Landeshauptstadt von NRW zum Düsseldorf Monday.
Kommt vorbei zu unserem Jahresabschluss und genießt den Service von Delivery bis Center nochmal komplett.
Als besonderes Highlight kann man heute das CPT von Tim Klein erwähnen. Tim möchte heute die Prüfer überzeugen das er mit mehr als 10 Jahren Vatsim Erfahrung bereit ist für sein Senior Controller Rating auf unserem EDGG_P_CTR.
Also ab 18:00z (19:00lcl) rein in den Flieger und ab nach Düsseldorf!

Das komplette Controller Team aus Düsseldorf bedankt sich bei allen Piloten die dieses Jahr an unseren Onlinetagen und Events geflogen sind und freuen uns euch alle im neuen Jahr wieder bei uns begrüßen zu dürfen.
Habt einen Guten Rutsch ins neue Jahr!

Nützliche Infos:

Scenery:

TAF:
  • EDDL 280500Z 2806/2912 16009KT 9999 BKN040 BECMG 2821/2824 16004KT PROB30 TEMPO 2906/2912 BKN012 BECMG 2907/2910 22008KT


PS: Habt einen blick in unsere Charts denn ab Heute sind auch die neuen Groundkarten Pünktlich zum Jahres ende fertig geworden.
 
Zuletzt bearbeitet:

Kai Schuele

1482477
RG Düsseldorf - Event



Willkommen 2021 am Flughafen Düsseldorf

Heute öffnen wir zum ersten mal dieses Jahr ab 18:00z (19:00lcl) den Flughafen der Landeshauptstadt von NRW zum Düsseldorf Monday.
Kommt vorbei und genießt den Service von Delivery bis Center heute komplett bei 05 Bedingungen.
Also ab 18:00z (19:00lcl) rein in den Flieger und ab nach Düsseldorf! Wir bereiten uns heute schon mal auf das Düsseldorf Overload am Samstag vor also macht mit uns ein Warm Up bevor der Luftraum Samstag über Düsseldorf am Brennen ist.

Besondere Shuttle Möglichkeiten Heute:
Nürnberg Montag
Turn around Budapest


Nützliche Infos:

Scenery:

TAF:
  • EDDL 041250Z 0412/0518 05010KT 9999 BKN012 BKN030 TEMPO 0412/0421 SCT012 BKN030 TEMPO 0421/0510 4000 BR BKN007 TEMPO 0512/0518 SCT012 BKN030
 

Maurice Szmudzinski

1332208
RG Düsseldorf - Event
Guadn Moang!

Es ist wieder Montag und wir freuen uns auf eine neue Ausgabe Düsseldorf Monday!
Heute wieder mit kompletter Besetzung und einem Training auf GND.
Unterstützt unseren Trainee und fliegt von oder nach Düsseldorf.
Auch die altbekannte Strecke zu den Kollegen in Nürnberg ist, wie jede Woche, geöffnet!

Wir freuen uns auf euch!

"There´s no better way to fly“
Deine Lufth... ähhh RG Düsseldorf ;)


Nützliche Infos:

Scenery:

TAF:
  • EDDL 180607Z 1806/1912 23007KT 9999 BKN030 TEMPO 1806/1810 BKN009 BECMG 1810/1812 22012KT BECMG 1903/1906 19015G25KT BKN012 TEMPO 1904/1912 4500 RA BKN008
 
Oben